createdAt,value
2018-04-08T00:00:19.899Z,99552.90
2018-04-08T00:02:49.728Z,99555.07
2018-04-08T00:05:19.573Z,99553.80
2018-04-08T00:07:49.420Z,99548.22
2018-04-08T00:10:19.287Z,99546.75
2018-04-08T00:12:49.108Z,99547.14
2018-04-08T00:15:18.940Z,99552.31
2018-04-08T00:17:48.802Z,99548.95
2018-04-08T00:20:18.632Z,99548.14
2018-04-08T00:22:48.450Z,99547.94
2018-04-08T00:25:18.299Z,99546.56
2018-04-08T00:27:47.779Z,99537.95
2018-04-08T00:30:17.623Z,99536.61
2018-04-08T00:32:47.462Z,99535.78
2018-04-08T00:35:17.344Z,99528.75
2018-04-08T00:37:47.192Z,99523.12
2018-04-08T00:40:17.009Z,99520.84
2018-04-08T00:42:46.851Z,99519.39
2018-04-08T00:45:16.680Z,99503.50
2018-04-08T00:47:46.517Z,99515.18
2018-04-08T00:50:16.364Z,99508.33
2018-04-08T00:52:46.046Z,99502.77
2018-04-08T00:55:15.920Z,99503.08
2018-04-08T00:57:45.187Z,99504.84
2018-04-08T01:00:14.553Z,99499.56
2018-04-08T01:02:43.893Z,99493.88
2018-04-08T01:05:13.168Z,99496.12
2018-04-08T01:07:42.448Z,99492.05
2018-04-08T01:10:11.797Z,99492.81
2018-04-08T01:12:41.085Z,99490.20
2018-04-08T01:15:10.360Z,99493.22
2018-04-08T01:17:39.426Z,99485.67
2018-04-08T01:20:09.560Z,99489.30
2018-04-08T01:22:39.380Z,99476.30
2018-04-08T01:25:09.227Z,99475.98
2018-04-08T01:27:39.160Z,99475.08
2018-04-08T01:30:09.150Z,99462.91
2018-04-08T01:32:38.959Z,99459.53
2018-04-08T01:35:08.654Z,99454.88
2018-04-08T01:37:38.686Z,99456.11
2018-04-08T01:40:08.579Z,99454.59
2018-04-08T01:42:38.508Z,99445.47
2018-04-08T01:45:08.397Z,99443.22
2018-04-08T01:47:38.264Z,99443.73
2018-04-08T01:50:08.103Z,99428.13
2018-04-08T01:52:37.959Z,99424.38
2018-04-08T01:55:07.805Z,99422.17
2018-04-08T01:57:37.682Z,99418.48
2018-04-08T02:00:07.551Z,99411.69
2018-04-08T02:02:37.401Z,99414.41
2018-04-08T02:05:07.255Z,99413.80
2018-04-08T02:07:36.883Z,99411.69
2018-04-08T02:10:06.922Z,99408.27
2018-04-08T02:12:36.857Z,99407.86
2018-04-08T02:15:06.687Z,99392.04
2018-04-08T02:17:36.548Z,99376.42
2018-04-08T02:20:06.400Z,99388.90
2018-04-08T02:22:36.493Z,99387.94
2018-04-08T02:25:06.357Z,99402.28
2018-04-08T02:27:36.009Z,99405.59
2018-04-08T02:30:05.869Z,99394.87
2018-04-08T02:32:35.717Z,99391.91
2018-04-08T02:35:05.993Z,99397.59
2018-04-08T02:37:36.240Z,99392.94
2018-04-08T02:40:06.174Z,99396.48
2018-04-08T02:42:36.054Z,99389.52
2018-04-08T02:45:05.969Z,99391.83
2018-04-08T02:47:35.919Z,99387.53
2018-04-08T02:50:05.917Z,99381.53
2018-04-08T02:52:35.684Z,99376.46
2018-04-08T02:55:05.342Z,99366.67
2018-04-08T02:57:35.085Z,99367.09
2018-04-08T03:00:04.621Z,99357.06
2018-04-08T03:02:34.487Z,99361.84
2018-04-08T03:05:04.433Z,99350.68
2018-04-08T03:07:34.281Z,99351.20
2018-04-08T03:10:03.920Z,99344.92
2018-04-08T03:12:33.772Z,99344.20
2018-04-08T03:15:03.897Z,99333.52
2018-04-08T03:17:33.740Z,99331.49
2018-04-08T03:20:03.607Z,99328.42
2018-04-08T03:22:33.508Z,99319.30
2018-04-08T03:25:03.370Z,99318.47
2018-04-08T03:27:33.266Z,99314.23
2018-04-08T03:30:03.125Z,99314.58
2018-04-08T03:32:33.017Z,99312.95
2018-04-08T03:35:02.908Z,99308.99
2018-04-08T03:37:32.759Z,99306.72
2018-04-08T03:40:02.614Z,99308.48
2018-04-08T03:42:32.486Z,99302.63
2018-04-08T03:45:02.349Z,99298.11
2018-04-08T03:47:32.211Z,99299.48
2018-04-08T03:50:02.058Z,99288.02
2018-04-08T03:52:31.700Z,99291.36
2018-04-08T03:55:01.348Z,99276.30
2018-04-08T03:57:31.046Z,99280.95
2018-04-08T04:00:00.679Z,99283.16
2018-04-08T04:02:30.292Z,99287.39
2018-04-08T04:05:00.072Z,99290.17
2018-04-08T04:07:29.721Z,99287.31
2018-04-08T04:09:59.601Z,99285.14
2018-04-08T04:12:29.236Z,99294.34
2018-04-08T04:14:58.880Z,99282.02
2018-04-08T04:17:28.762Z,99288.42
2018-04-08T04:20:09.644Z,99288.77
2018-04-08T04:22:50.496Z,99289.11
2018-04-08T04:25:30.880Z,99284.05
2018-04-08T04:28:00.544Z,99282.63
2018-04-08T04:30:30.456Z,99285.83
2018-04-08T04:33:00.308Z,99279.50
2018-04-08T04:35:29.948Z,99266.59
2018-04-08T04:37:59.915Z,99269.27
2018-04-08T04:40:29.836Z,99269.92
2018-04-08T04:43:00.661Z,99262.25
2018-04-08T04:45:30.524Z,99264.00
2018-04-08T04:48:00.379Z,99253.02
2018-04-08T04:50:30.236Z,99246.00
2018-04-08T04:53:00.088Z,99242.97
2018-04-08T04:55:29.726Z,99233.02
2018-04-08T04:57:59.580Z,99270.25
2018-04-08T05:00:29.235Z,99245.52
2018-04-08T05:02:58.873Z,99235.17
2018-04-08T05:05:28.742Z,99230.69
2018-04-08T05:07:58.587Z,99231.16
2018-04-08T05:10:28.488Z,99234.19
2018-04-08T05:12:58.328Z,99231.05
2018-04-08T05:15:28.206Z,99232.44
2018-04-08T05:17:58.054Z,99228.33
2018-04-08T05:20:27.907Z,99226.05
2018-04-08T05:22:57.817Z,99220.70
2018-04-08T05:25:27.778Z,99234.23
2018-04-08T05:27:57.639Z,99223.14
2018-04-08T05:30:27.487Z,99211.87
2018-04-08T05:32:57.414Z,99201.67
2018-04-08T05:35:27.047Z,99190.52
2018-04-08T05:37:56.896Z,99200.19
2018-04-08T05:40:26.881Z,99200.69
2018-04-08T05:42:57.005Z,99198.48
2018-04-08T05:45:26.936Z,99197.02
2018-04-08T05:47:56.928Z,99194.70
2018-04-08T05:50:26.804Z,99209.35
2018-04-08T05:52:56.461Z,99198.84
2018-04-08T05:55:26.306Z,99199.19
2018-04-08T05:57:56.032Z,99207.27
2018-04-08T06:00:25.928Z,99201.20
2018-04-08T06:02:55.967Z,99189.59
2018-04-08T06:05:25.883Z,99197.34
2018-04-08T06:07:55.740Z,99190.99
2018-04-08T06:10:25.630Z,99199.30
2018-04-08T06:12:55.702Z,99189.94
2018-04-08T06:15:25.659Z,99185.08
2018-04-08T06:17:55.770Z,99190.50
2018-04-08T06:20:25.645Z,99189.81
2018-04-08T06:22:55.522Z,99176.57
2018-04-08T06:25:25.177Z,99181.66
2018-04-08T06:27:54.984Z,99182.48
2018-04-08T06:30:24.860Z,99183.53
2018-04-08T06:32:54.735Z,99180.20
2018-04-08T06:35:24.382Z,99184.84
2018-04-08T06:37:54.064Z,99178.11
2018-04-08T06:40:23.711Z,99181.67
2018-04-08T06:42:53.376Z,99172.28
2018-04-08T06:45:23.420Z,99170.39
2018-04-08T06:47:53.147Z,99173.67
2018-04-08T06:50:23.074Z,99163.05
2018-04-08T06:52:52.958Z,99173.73
2018-04-08T06:55:22.818Z,99176.58
2018-04-08T06:57:52.700Z,99167.05
2018-04-08T07:00:22.580Z,99177.87
2018-04-08T07:02:52.428Z,99162.07
2018-04-08T07:05:22.106Z,99166.94
2018-04-08T07:07:52.005Z,99167.31
2018-04-08T07:10:21.984Z,99167.34
2018-04-08T07:12:51.911Z,99153.17
2018-04-08T07:15:21.675Z,99132.02
2018-04-08T07:17:51.544Z,99143.30
2018-04-08T07:20:21.403Z,99150.17
2018-04-08T07:22:51.350Z,99152.15
2018-04-08T07:25:20.980Z,99154.26
2018-04-08T07:27:50.836Z,99132.78
2018-04-08T07:30:20.912Z,99141.73
2018-04-08T07:32:50.766Z,99140.80
2018-04-08T07:35:20.817Z,99137.48
2018-04-08T07:37:50.708Z,99155.66
2018-04-08T07:40:20.595Z,99136.14
2018-04-08T07:42:50.454Z,99125.69
2018-04-08T07:45:20.323Z,99123.54
2018-04-08T07:47:50.246Z,99121.45
2018-04-08T07:50:20.092Z,99126.09
2018-04-08T07:52:49.989Z,99106.66
2018-04-08T07:55:19.871Z,99116.11
2018-04-08T07:57:49.564Z,99101.37
2018-04-08T08:00:19.606Z,99083.38
2018-04-08T08:02:49.452Z,99076.76
2018-04-08T08:05:19.354Z,99086.52
2018-04-08T08:07:49.211Z,99088.11
2018-04-08T08:10:19.075Z,99079.23
2018-04-08T08:12:48.948Z,99070.20
2018-04-08T08:15:18.805Z,99071.22
2018-04-08T08:17:48.723Z,99075.39
2018-04-08T08:20:18.847Z,99078.16
2018-04-08T08:22:48.701Z,99085.75
2018-04-08T08:25:18.569Z,99066.78
2018-04-08T08:27:48.446Z,99067.61
2018-04-08T08:30:18.452Z,99061.22
2018-04-08T08:32:48.477Z,99063.23
2018-04-08T08:35:18.332Z,99063.89
2018-04-08T08:37:48.214Z,99072.92
2018-04-08T08:40:18.103Z,99055.66
2018-04-08T08:42:47.962Z,99061.52
2018-04-08T08:45:17.840Z,99063.34
2018-04-08T08:47:47.708Z,99073.05
2018-04-08T08:50:17.911Z,99068.52
2018-04-08T08:52:47.485Z,99063.28
2018-04-08T08:55:17.066Z,99060.78
2018-04-08T08:57:46.661Z,99064.91
2018-04-08T09:00:16.249Z,99062.57
2018-04-08T09:02:45.985Z,99065.00
2018-04-08T09:05:15.361Z,99070.30
2018-04-08T09:07:45.040Z,99069.59
2018-04-08T09:10:14.621Z,99063.52
2018-04-08T09:12:44.195Z,99062.76
2018-04-08T09:15:13.558Z,99052.34
2018-04-08T09:17:42.908Z,99059.47
2018-04-08T09:23:26.868Z,99053.84
2018-04-08T09:25:56.231Z,99051.55
2018-04-08T09:28:25.862Z,99054.69
2018-04-08T09:30:55.464Z,99057.31
2018-04-08T09:33:24.956Z,99055.28
2018-04-08T09:35:54.642Z,99049.98
2018-04-08T09:38:24.215Z,99056.63
2018-04-08T09:40:53.462Z,99058.95
2018-04-08T09:43:23.073Z,99061.39
2018-04-08T09:45:52.644Z,99064.49
2018-04-08T09:48:22.223Z,99059.34
2018-04-08T09:50:51.942Z,99054.58
2018-04-08T09:53:21.521Z,99060.84
2018-04-08T09:55:50.882Z,99040.73
2018-04-08T09:58:20.656Z,99042.11
2018-04-08T10:03:52.192Z,99025.10
2018-04-08T10:06:21.877Z,99022.23
2018-04-08T10:08:51.460Z,99035.14
2018-04-08T10:11:21.113Z,99032.37
2018-04-08T10:13:50.689Z,99022.70
2018-04-08T10:16:20.237Z,99047.52
2018-04-08T10:18:49.599Z,99024.48
2018-04-08T10:21:19.209Z,99016.27
2018-04-08T10:23:48.613Z,99008.67
2018-04-08T10:26:18.317Z,98986.30
2018-04-08T10:28:48.047Z,98993.92
2018-04-08T10:31:17.795Z,98980.95
2018-04-08T10:33:47.376Z,98981.06
2018-04-08T10:36:16.944Z,98984.97
2018-04-08T10:38:46.500Z,98991.16
2018-04-08T10:41:16.071Z,98982.30
2018-04-08T10:43:45.645Z,98987.91
2018-04-08T10:46:15.245Z,98988.16
2018-04-08T10:48:44.810Z,98986.48
2018-04-08T10:51:14.178Z,98981.38
2018-04-08T10:53:43.793Z,98978.19
2018-04-08T10:56:13.364Z,98964.33
2018-04-08T10:58:43.031Z,98971.76
2018-04-08T11:01:12.614Z,98962.41
2018-04-08T11:03:42.197Z,98966.92
2018-04-08T11:06:11.866Z,98969.18
2018-04-08T11:08:41.440Z,98975.38
2018-04-08T11:11:10.792Z,98973.77
2018-04-08T11:13:40.385Z,98980.13
2018-04-08T11:16:09.966Z,98974.07
2018-04-08T11:18:39.536Z,98979.01
2018-04-08T11:21:09.203Z,98984.20
2018-04-08T11:23:38.800Z,98962.25
2018-04-08T11:26:08.393Z,98961.05
2018-04-08T11:28:37.949Z,98963.02
2018-04-08T11:31:07.528Z,98967.91
2018-04-08T11:33:37.108Z,98964.30
2018-04-08T11:36:06.670Z,98964.51
2018-04-08T11:38:36.017Z,98964.89
2018-04-08T11:41:05.728Z,98953.72
2018-04-08T11:43:35.408Z,98976.52
2018-04-08T11:46:04.855Z,98956.73
2018-04-08T11:48:34.444Z,98963.08
2018-04-08T11:51:04.022Z,98967.67
2018-04-08T11:53:33.583Z,98955.15
2018-04-08T11:56:03.186Z,98951.91
2018-04-08T11:58:32.649Z,98948.36
2018-04-08T12:01:02.005Z,98939.02
2018-04-08T12:03:31.400Z,98936.70
2018-04-08T12:06:00.972Z,98927.92
2018-04-08T12:08:30.539Z,98939.68
2018-04-08T12:11:00.118Z,98925.82
2018-04-08T12:13:29.472Z,98939.27
2018-04-08T12:15:59.209Z,98940.12
2018-04-08T12:18:28.600Z,98936.84
2018-04-08T12:20:57.947Z,98930.56
2018-04-08T12:23:27.338Z,98928.26
2018-04-08T12:25:57.061Z,98932.94
2018-04-08T12:28:26.420Z,98927.51
2018-04-08T12:30:55.775Z,98929.49
2018-04-08T12:33:25.225Z,98915.62
2018-04-08T12:35:54.776Z,98911.67
2018-04-08T12:38:24.351Z,98897.23
2018-04-08T12:40:53.725Z,98903.99
2018-04-08T12:43:23.301Z,98903.28
2018-04-08T12:45:52.878Z,98906.27
2018-04-08T12:48:22.736Z,98889.90
2018-04-08T12:50:52.185Z,98891.51
2018-04-08T12:53:21.537Z,98889.41
2018-04-08T12:55:51.504Z,98881.17
2018-04-08T12:58:21.419Z,98882.42
2018-04-08T13:00:50.978Z,98889.23
2018-04-08T13:03:20.559Z,98877.66
2018-04-08T13:05:50.136Z,98872.85
2018-04-08T13:08:19.699Z,98874.17
2018-04-08T13:10:49.278Z,98884.22
2018-04-08T13:13:18.898Z,98884.71
2018-04-08T13:15:48.273Z,98866.69
2018-04-08T13:18:17.636Z,98872.30
2018-04-08T13:20:47.005Z,98866.59
2018-04-08T13:23:16.599Z,98858.84
2018-04-08T13:25:46.164Z,98870.96
2018-04-08T13:28:15.738Z,98864.34
2018-04-08T13:30:45.292Z,98859.10
2018-04-08T13:33:14.853Z,98857.86
2018-04-08T13:35:44.188Z,98862.06
2018-04-08T13:38:13.736Z,98857.92
2018-04-08T13:40:43.356Z,98851.45
2018-04-08T13:43:12.900Z,98848.15
2018-04-08T13:45:42.471Z,98832.32
2018-04-08T13:48:12.039Z,98848.81
2018-04-08T13:50:41.625Z,98836.61
2018-04-08T13:53:11.258Z,98844.44
2018-04-08T13:55:40.946Z,98830.75
2018-04-08T13:58:10.510Z,98825.23
2018-04-08T14:00:39.851Z,98823.42
2018-04-08T14:03:09.416Z,98814.38
2018-04-08T14:05:39.128Z,98826.73
2018-04-08T14:08:08.697Z,98812.84
2018-04-08T14:10:38.251Z,98813.00
2018-04-08T14:13:07.830Z,98809.95
2018-04-08T14:15:37.393Z,98822.07
2018-04-08T14:18:07.006Z,98806.73
2018-04-08T14:20:36.760Z,98825.22
2018-04-08T14:23:06.321Z,98810.95
2018-04-08T14:25:35.863Z,98802.36
2018-04-08T14:28:05.480Z,98799.33
2018-04-08T14:30:35.032Z,98796.97
2018-04-08T14:33:04.373Z,98808.94
2018-04-08T14:35:33.762Z,98806.02
2018-04-08T14:38:03.316Z,98801.16
2018-04-08T14:40:32.878Z,98803.27
2018-04-08T14:43:02.249Z,98800.67
2018-04-08T14:45:31.624Z,98808.41
2018-04-08T14:48:01.172Z,98796.06
2018-04-08T14:50:30.746Z,98792.75
2018-04-08T14:53:00.300Z,98798.33
2018-04-08T14:55:29.852Z,98790.82
2018-04-08T14:57:59.216Z,98794.14
2018-04-08T15:00:28.371Z,98795.33
2018-04-08T15:02:57.770Z,98786.00
2018-04-08T15:05:27.099Z,98791.31
2018-04-08T15:07:56.436Z,98774.33
2018-04-08T15:10:26.008Z,98774.48
2018-04-08T15:12:55.432Z,98773.78
2018-04-08T15:15:24.869Z,98778.67
2018-04-08T15:17:54.213Z,98779.06
2018-04-08T15:20:23.841Z,98789.30
2018-04-08T15:22:53.224Z,98764.50
2018-04-08T15:25:22.781Z,98777.41
2018-04-08T15:27:52.364Z,98771.65
2018-04-08T15:30:21.919Z,98770.87
2018-04-08T15:32:51.260Z,98762.28
2018-04-08T15:35:20.833Z,98775.63
2018-04-08T15:37:50.386Z,98756.38
2018-04-08T15:40:20.113Z,98759.80
2018-04-08T15:42:49.471Z,98756.34
2018-04-08T15:45:19.042Z,98760.30
2018-04-08T15:47:48.613Z,98760.14
2018-04-08T15:50:18.187Z,98750.94
2018-04-08T15:52:47.741Z,98760.30
2018-04-08T15:55:17.305Z,98752.88
2018-04-08T15:57:46.849Z,98751.34
2018-04-08T16:00:16.607Z,98736.66
2018-04-08T16:02:46.176Z,98753.20
2018-04-08T16:05:16.032Z,98747.00
2018-04-08T16:07:45.390Z,98754.09
2018-04-08T16:10:14.960Z,98751.80
2018-04-08T16:12:44.298Z,98748.30
2018-04-08T16:15:13.876Z,98749.00
2018-04-08T16:17:43.449Z,98751.72
2018-04-08T16:20:13.225Z,98742.54
2018-04-08T16:22:42.935Z,98745.61
2018-04-08T16:25:12.484Z,98744.80
2018-04-08T16:27:41.928Z,98743.48
2018-04-08T16:30:11.533Z,98744.42
2018-04-08T16:32:41.205Z,98738.42
2018-04-08T16:35:10.998Z,98731.83
2018-04-08T16:37:40.556Z,98772.16
2018-04-08T16:40:10.232Z,98741.56
2018-04-08T16:42:39.797Z,98748.80
2018-04-08T16:45:09.344Z,98734.69
2018-04-08T16:47:38.966Z,98738.24
2018-04-08T16:50:08.536Z,98742.58
2018-04-08T16:52:38.269Z,98736.66
2018-04-08T16:55:07.838Z,98732.78
2018-04-08T16:57:37.396Z,98733.20
2018-04-08T17:00:07.048Z,98726.91
2018-04-08T17:02:36.618Z,98738.45
2018-04-08T17:05:06.355Z,98733.83
2018-04-08T17:07:35.940Z,98740.47
2018-04-08T17:10:05.548Z,98736.28
2018-04-08T17:12:35.633Z,98739.55
2018-04-08T17:15:05.245Z,98743.22
2018-04-08T17:17:34.840Z,98747.25
2018-04-08T17:20:04.200Z,98738.48
2018-04-08T17:22:33.549Z,98735.48
2018-04-08T17:25:02.975Z,98736.86
2018-04-08T17:27:32.325Z,98747.38
2018-04-08T17:30:01.886Z,98745.42
2018-04-08T17:32:31.459Z,98747.11
2018-04-08T17:35:01.022Z,98746.17
2018-04-08T17:37:30.655Z,98739.89
2018-04-08T17:40:00.009Z,98738.38
2018-04-08T17:42:29.408Z,98742.19
2018-04-08T17:44:58.787Z,98743.55
2018-04-08T17:47:28.249Z,98743.70
2018-04-08T17:49:57.819Z,98739.29
2018-04-08T17:52:27.782Z,98750.64
2018-04-08T17:54:57.683Z,98745.09
2018-04-08T17:57:27.448Z,98751.50
2018-04-08T17:59:57.021Z,98747.59
2018-04-08T18:02:26.369Z,98757.16
2018-04-08T18:04:56.109Z,98752.09
2018-04-08T18:07:25.666Z,98754.60
2018-04-08T18:09:55.738Z,98765.55
2018-04-08T18:12:25.381Z,98759.88
2018-04-08T18:14:54.979Z,98768.89
2018-04-08T18:17:24.533Z,98768.63
2018-04-08T18:19:54.100Z,98765.57
2018-04-08T18:22:23.685Z,98765.02
2018-04-08T18:24:53.248Z,98771.84
2018-04-08T18:27:22.886Z,98776.48
2018-04-08T18:29:52.453Z,98773.53
2018-04-08T18:32:22.109Z,98776.04
2018-04-08T18:34:51.736Z,98777.81
2018-04-08T18:37:21.434Z,98770.04
2018-04-08T18:39:50.989Z,98774.80
2018-04-08T18:42:21.341Z,98787.86
2018-04-08T18:44:50.956Z,98786.49
2018-04-08T18:47:20.509Z,98786.27
2018-04-08T18:49:50.207Z,98782.72
2018-04-08T18:52:19.807Z,98778.23
2018-04-08T18:54:49.547Z,98779.00
2018-04-08T18:57:19.278Z,98772.52
2018-04-08T18:59:48.954Z,98772.28
2018-04-08T19:02:18.516Z,98772.78
2018-04-08T19:04:48.094Z,98771.86
2018-04-08T19:07:17.660Z,98779.98
2018-04-08T19:09:47.558Z,98780.80
2018-04-08T19:12:17.065Z,98778.66
2018-04-08T19:14:52.120Z,98783.06
2018-04-08T19:17:27.253Z,98776.80
2018-04-08T19:19:57.062Z,98779.59
2018-04-08T19:22:26.484Z,98780.05
2018-04-08T19:24:56.076Z,98778.98
2018-04-08T19:27:31.111Z,98776.13
2018-04-08T19:30:00.509Z,98780.89
2018-04-08T19:32:30.290Z,98778.34
2018-04-08T19:34:59.965Z,98778.14
2018-04-08T19:37:29.525Z,98777.40
2018-04-08T19:39:59.092Z,98773.31
2018-04-08T19:42:28.797Z,98765.59
2018-04-08T19:44:58.347Z,98768.17
2018-04-08T19:47:27.908Z,98762.63
2018-04-08T19:49:57.490Z,98764.56
2018-04-08T19:52:27.033Z,98757.09
2018-04-08T19:54:56.596Z,98759.30
2018-04-08T19:57:26.152Z,98763.81
2018-04-08T19:59:55.743Z,98746.95
2018-04-08T20:02:25.293Z,98756.56
2018-04-08T20:04:54.849Z,98747.86
2018-04-08T20:07:24.414Z,98753.71
2018-04-08T20:09:53.977Z,98757.14
2018-04-08T20:12:23.556Z,98742.07
2018-04-08T20:14:53.139Z,98755.02
2018-04-08T20:17:22.799Z,98748.69
2018-04-08T20:19:52.360Z,98749.80
2018-04-08T20:22:21.916Z,98742.73
2018-04-08T20:24:51.473Z,98735.83
2018-04-08T20:27:21.015Z,98736.50
2018-04-08T20:29:50.585Z,98731.50
2018-04-08T20:32:20.129Z,98741.16
2018-04-08T20:34:49.686Z,98746.16
2018-04-08T20:37:19.249Z,98739.81
2018-04-08T20:39:48.600Z,98751.52
2018-04-08T20:42:18.162Z,98744.44
2018-04-08T20:44:47.716Z,98750.42
2018-04-08T20:47:17.345Z,98748.66
2018-04-08T20:49:46.918Z,98752.63
2018-04-08T20:52:16.679Z,98760.48
2018-04-08T20:54:46.387Z,98753.41
2018-04-08T20:57:15.965Z,98760.64
2018-04-08T20:59:45.523Z,98761.87
2018-04-08T21:02:15.072Z,98749.94
2018-04-08T21:04:44.654Z,98752.51
2018-04-08T21:07:14.208Z,98746.42
2018-04-08T21:09:43.769Z,98754.72
2018-04-08T21:12:13.328Z,98752.40
2018-04-08T21:14:42.937Z,98750.66
2018-04-08T21:17:12.690Z,98755.17
2018-04-08T21:19:42.384Z,98740.62
2018-04-08T21:22:14.941Z,98740.62
2018-04-08T21:24:44.276Z,98747.17
2018-04-08T21:27:13.873Z,98748.26
2018-04-08T21:29:44.044Z,98761.83
2018-04-08T21:32:13.604Z,98751.73
2018-04-08T21:34:42.959Z,98750.14
2018-04-08T21:37:12.537Z,98746.98
2018-04-08T21:39:41.877Z,98750.39
2018-04-08T21:42:11.218Z,98746.83
2018-04-08T21:44:40.588Z,98750.66
2018-04-08T21:47:10.155Z,98742.20
2018-04-08T21:49:39.721Z,98739.52
2018-04-08T21:52:09.305Z,98737.61
2018-04-08T21:54:38.856Z,98747.28
2018-04-08T21:57:08.412Z,98738.31
2018-04-08T21:59:37.999Z,98746.90
2018-04-08T22:02:07.554Z,98747.30
2018-04-08T22:04:37.105Z,98738.91
2018-04-08T22:07:07.266Z,98745.13
2018-04-08T22:09:36.821Z,98742.82
2018-04-08T22:12:06.372Z,98738.59
2018-04-08T22:14:35.945Z,98735.70
2018-04-08T22:17:05.507Z,98730.00
2018-04-08T22:19:35.324Z,98729.99
2018-04-08T22:22:04.655Z,98726.48
2018-04-08T22:24:34.799Z,98720.53
2018-04-08T22:27:04.604Z,98729.77
2018-04-08T22:29:34.169Z,98730.72
2018-04-08T22:32:03.716Z,98728.80
2018-04-08T22:34:33.380Z,98722.55
2018-04-08T22:37:02.924Z,98725.67
2018-04-08T22:39:32.501Z,98730.86
2018-04-08T22:42:02.069Z,98728.69
2018-04-08T22:44:31.637Z,98719.44
2018-04-08T22:47:01.213Z,98712.11
2018-04-08T22:49:30.761Z,98718.63
2018-04-08T22:52:00.320Z,98715.75
2018-04-08T22:54:29.969Z,98709.09
2018-04-08T22:56:59.561Z,98702.98
2018-04-08T22:59:29.088Z,98702.97
2018-04-08T23:01:58.433Z,98703.38
2018-04-08T23:04:27.995Z,98700.50
2018-04-08T23:06:57.556Z,98712.19
2018-04-08T23:09:27.601Z,98694.93
2018-04-08T23:11:56.982Z,98695.20
2018-04-08T23:14:26.531Z,98699.01
2018-04-08T23:16:56.099Z,98707.41
2018-04-08T23:19:25.662Z,98703.03
2018-04-08T23:21:55.004Z,98703.20
2018-04-08T23:24:24.612Z,98704.13
2018-04-08T23:26:54.361Z,98696.45
2018-04-08T23:29:24.013Z,98701.21
2018-04-08T23:31:53.675Z,98694.25
2018-04-08T23:34:23.240Z,98692.62
2018-04-08T23:36:52.838Z,98690.17
2018-04-08T23:39:22.167Z,98682.91
2018-04-08T23:41:51.749Z,98671.48
2018-04-08T23:44:21.094Z,98672.43
2018-04-08T23:46:50.716Z,98682.77
2018-04-08T23:49:20.436Z,98671.17
2018-04-08T23:51:49.993Z,98658.80
2018-04-08T23:54:19.334Z,98669.95
2018-04-08T23:56:49.233Z,98666.59
2018-04-08T23:59:18.822Z,98669.47
